Time;durP1;ratioP1;P1;durP2;ratioP2;P2;SDS_P1;SDS_P2;PMS_P1;PMS_P2;Temp;Humidity;BMP_temperature;BMP_pressure;BME280_temperature;BME280_humidity;BME280_pressure;Samples;Min_cycle;Max_cycle;Signal;HPM_P1;HPM_P2
2023/06/25 00:00:30;;;;;;;6.35;4.13;;;23.40;80.20;;;;;;4998494;28;20064;-81
2023/06/25 00:02:56;;;;;;;6.60;4.15;;;23.30;80.30;;;;;;5005548;28;20520;-80
2023/06/25 00:05:21;;;;;;;5.72;4.13;;;23.30;80.40;;;;;;5001216;28;20046;-81
2023/06/25 00:07:47;;;;;;;6.22;4.30;;;23.30;80.40;;;;;;5013257;28;20056;-81
2023/06/25 00:10:13;;;;;;;6.38;4.70;;;23.30;80.60;;;;;;5013035;28;20041;-82
2023/06/25 00:12:39;;;;;;;7.57;4.85;;;23.20;80.60;;;;;;4998708;28;20392;-82
2023/06/25 00:15:05;;;;;;;6.72;4.75;;;23.20;80.70;;;;;;4994241;28;20042;-82
2023/06/25 00:17:31;;;;;;;6.53;4.70;;;23.20;80.80;;;;;;4995065;28;20042;-81
2023/06/25 00:19:57;;;;;;;6.88;4.93;;;23.10;80.90;;;;;;4994722;28;20406;-82
2023/06/25 00:22:24;;;;;;;6.88;4.55;;;23.00;81.10;;;;;;5010219;28;20050;-80
2023/06/25 00:24:50;;;;;;;6.93;4.70;;;23.00;81.10;;;;;;5014188;28;20124;-81
2023/06/25 00:27:16;;;;;;;7.82;4.70;;;23.00;81.30;;;;;;5013428;28;20073;-82
2023/06/25 00:29:41;;;;;;;6.28;4.57;;;22.90;81.30;;;;;;4997319;28;20086;-82
2023/06/25 00:32:07;;;;;;;6.20;4.65;;;22.90;81.30;;;;;;4998007;28;20049;-81
2023/06/25 00:34:40;;;;;;;6.68;4.80;;;22.90;81.50;;;;;;5011369;28;20500;-81
2023/06/25 00:37:16;;;;;;;10.43;4.97;;;22.90;81.50;;;;;;5001622;28;20046;-82
2023/06/25 00:39:46;;;;;;;7.00;4.90;;;22.80;81.60;;;;;;4996455;28;20128;-82
2023/06/25 00:42:13;;;;;;;6.65;4.95;;;22.80;81.60;;;;;;4995708;28;20050;-82
2023/06/25 00:44:41;;;;;;;6.90;4.95;;;22.80;81.60;;;;;;4998071;28;20053;-82
2023/06/25 00:47:13;;;;;;;6.22;4.47;;;22.70;81.60;;;;;;5010396;28;20049;-82
2023/06/25 00:49:43;;;;;;;6.47;4.70;;;22.60;81.60;;;;;;5010116;28;20045;-81
2023/06/25 00:52:10;;;;;;;8.05;5.05;;;22.60;81.70;;;;;;5010338;28;20049;-81
2023/06/25 00:54:41;;;;;;;7.38;5.20;;;22.50;81.80;;;;;;5008458;28;20120;-80
2023/06/25 00:57:08;;;;;;;7.55;5.07;;;22.50;81.90;;;;;;5001367;28;20053;-81
2023/06/25 00:59:42;;;;;;;8.13;5.45;;;22.50;81.90;;;;;;4996412;28;20058;-82
2023/06/25 01:02:11;;;;;;;7.70;5.00;;;22.40;81.90;;;;;;5010860;28;20088;-82
2023/06/25 01:04:42;;;;;;;7.20;5.47;;;22.40;82.20;;;;;;5002000;28;21138;-82
2023/06/25 01:07:16;;;;;;;7.63;5.75;;;22.30;82.20;;;;;;5004347;28;20041;-81
2023/06/25 01:09:47;;;;;;;8.05;5.72;;;22.30;82.20;;;;;;5007664;28;20100;-82
2023/06/25 01:12:12;;;;;;;8.35;6.18;;;22.20;82.30;;;;;;4984567;28;20472;-82
2023/06/25 01:14:38;;;;;;;8.13;5.85;;;22.20;82.50;;;;;;4998541;28;20053;-82
2023/06/25 01:17:05;;;;;;;9.63;6.70;;;22.10;82.60;;;;;;4995719;28;20082;-82
2023/06/25 01:19:31;;;;;;;8.88;6.35;;;22.10;83.00;;;;;;4999978;28;20523;-82
2023/06/25 01:22:03;;;;;;;9.10;7.22;;;22.10;83.20;;;;;;4995435;28;20050;-82
2023/06/25 01:24:32;;;;;;;9.38;7.13;;;22.10;83.40;;;;;;5004661;28;20057;-81
2023/06/25 01:26:59;;;;;;;9.98;7.05;;;22.00;83.50;;;;;;4993984;28;20606;-82
2023/06/25 01:29:28;;;;;;;8.60;6.93;;;22.00;83.50;;;;;;5001644;28;20835;-81
2023/06/25 01:31:54;;;;;;;10.90;7.47;;;22.00;83.50;;;;;;5008760;28;20503;-81
2023/06/25 01:34:20;;;;;;;11.20;7.55;;;22.00;83.40;;;;;;5008051;28;20054;-82
2023/06/25 01:36:49;;;;;;;10.13;7.55;;;21.90;83.80;;;;;;5004191;28;20049;-82
2023/06/25 01:39:16;;;;;;;9.30;7.05;;;21.90;83.90;;;;;;4997022;28;20050;-80
2023/06/25 01:41:43;;;;;;;9.85;7.32;;;21.80;83.80;;;;;;4995153;28;20085;-81
2023/06/25 01:44:11;;;;;;;9.65;7.43;;;21.80;83.80;;;;;;4996363;28;20053;-81
2023/06/25 01:46:36;;;;;;;10.95;8.00;;;21.70;83.80;;;;;;5001050;28;20057;-80
2023/06/25 01:49:02;;;;;;;9.65;7.38;;;21.70;83.90;;;;;;4978353;28;20050;-81
2023/06/25 01:51:28;;;;;;;9.52;7.25;;;21.70;83.90;;;;;;5006419;28;20046;-81
2023/06/25 01:53:53;;;;;;;9.05;7.43;;;21.70;83.80;;;;;;4992256;28;20046;-81
2023/06/25 01:56:19;;;;;;;9.80;7.65;;;21.60;83.80;;;;;;4994045;28;20046;-81
2023/06/25 01:58:44;;;;;;;10.15;7.97;;;21.60;84.10;;;;;;4976391;28;20073;-80
2023/06/25 02:01:10;;;;;;;10.07;7.70;;;21.60;84.30;;;;;;5002288;28;20108;-81
2023/06/25 02:03:36;;;;;;;10.55;8.02;;;21.60;84.20;;;;;;4992928;28;20487;-81
2023/06/25 02:06:01;;;;;;;11.23;8.13;;;21.50;84.10;;;;;;5008541;28;20129;-81
2023/06/25 02:08:27;;;;;;;9.60;7.75;;;21.50;84.40;;;;;;4992319;28;20130;-81
2023/06/25 02:10:52;;;;;;;11.52;8.63;;;21.50;84.50;;;;;;5009406;28;20053;-81
2023/06/25 02:13:18;;;;;;;10.88;8.93;;;21.40;84.50;;;;;;5013419;28;20052;-81
2023/06/25 02:15:44;;;;;;;14.55;8.88;;;21.40;84.60;;;;;;5005425;28;20044;-82
2023/06/25 02:18:09;;;;;;;11.15;8.70;;;21.40;84.80;;;;;;5012774;28;20042;-81
2023/06/25 02:20:35;;;;;;;12.90;8.68;;;21.30;84.70;;;;;;5010320;28;20077;-82
2023/06/25 02:23:01;;;;;;;13.15;8.50;;;21.30;84.90;;;;;;4997233;28;20076;-82
2023/06/25 02:25:26;;;;;;;11.95;8.75;;;21.30;85.10;;;;;;5002250;28;20095;-81
2023/06/25 02:27:52;;;;;;;10.90;8.77;;;21.30;85.30;;;;;;4996956;28;20182;-81
2023/06/25 02:30:17;;;;;;;9.88;8.23;;;21.30;85.30;;;;;;4998151;28;20042;-82
2023/06/25 02:32:46;;;;;;;11.40;8.45;;;21.20;85.40;;;;;;5013525;28;20460;-82
2023/06/25 02:35:12;;;;;;;10.25;8.52;;;21.20;85.40;;;;;;5009304;28;20049;-82
2023/06/25 02:37:37;;;;;;;10.43;8.30;;;21.20;85.50;;;;;;5002307;28;20050;-82
2023/06/25 02:40:03;;;;;;;10.60;8.27;;;21.20;85.40;;;;;;4996984;28;20051;-82
2023/06/25 02:42:29;;;;;;;13.13;8.60;;;21.20;85.50;;;;;;4993358;28;20071;-82
2023/06/25 02:44:54;;;;;;;11.32;8.75;;;21.20;85.30;;;;;;4995341;28;20042;-82
2023/06/25 02:47:20;;;;;;;12.10;8.35;;;21.10;85.30;;;;;;4994672;28;20049;-82
2023/06/25 02:49:46;;;;;;;9.43;7.90;;;21.10;85.40;;;;;;4994866;28;20042;-82
2023/06/25 02:52:11;;;;;;;12.35;8.50;;;21.10;85.40;;;;;;4997931;28;20124;-82
2023/06/25 02:54:37;;;;;;;10.75;8.07;;;21.10;85.60;;;;;;5011896;28;20080;-82
2023/06/25 02:57:02;;;;;;;10.57;8.25;;;21.00;85.60;;;;;;4995220;28;20125;-82
2023/06/25 02:59:28;;;;;;;11.57;7.82;;;21.00;85.70;;;;;;4997658;28;20054;-82
2023/06/25 03:01:54;;;;;;;10.48;8.18;;;21.00;85.70;;;;;;5012417;28;20077;-81
2023/06/25 03:04:20;;;;;;;11.10;7.35;;;20.90;85.60;;;;;;5008403;28;20564;-82
2023/06/25 03:06:45;;;;;;;10.13;7.90;;;20.90;85.60;;;;;;5011940;28;20130;-82
2023/06/25 03:09:11;;;;;;;10.70;8.20;;;20.90;85.60;;;;;;4997221;28;20069;-82
2023/06/25 03:11:37;;;;;;;10.00;7.82;;;20.90;85.70;;;;;;5000799;28;20046;-81
2023/06/25 03:14:02;;;;;;;9.73;7.93;;;20.80;85.70;;;;;;4995591;28;20057;-81
2023/06/25 03:16:28;;;;;;;9.95;8.38;;;20.80;85.90;;;;;;5007562;28;20089;-81
2023/06/25 03:18:54;;;;;;;10.38;7.97;;;20.80;85.90;;;;;;4995061;28;20042;-81
2023/06/25 03:21:19;;;;;;;10.55;8.45;;;20.70;85.70;;;;;;4983729;28;20050;-81
2023/06/25 03:23:47;;;;;;;10.25;8.02;;;20.70;86.60;;;;;;5008481;28;20053;-81
2023/06/25 03:26:13;;;;;;;10.75;8.52;;;20.70;86.10;;;;;;5007448;28;20133;-81
2023/06/25 03:28:38;;;;;;;10.73;7.32;;;20.70;86.20;;;;;;4996723;28;20121;-82
2023/06/25 03:31:04;;;;;;;10.55;8.25;;;20.60;86.30;;;;;;5006679;28;20046;-82
2023/06/25 03:33:30;;;;;;;9.18;7.78;;;20.60;86.30;;;;;;4984239;28;20496;-81
2023/06/25 03:35:55;;;;;;;10.88;8.23;;;20.60;86.40;;;;;;5005355;28;20050;-81
2023/06/25 03:38:21;;;;;;;9.68;8.15;;;20.50;86.70;;;;;;5004071;28;20492;-81
2023/06/25 03:40:46;;;;;;;10.10;8.45;;;20.50;86.80;;;;;;5006454;28;20400;-81
2023/06/25 03:43:12;;;;;;;9.85;7.82;;;20.50;86.90;;;;;;5015787;28;20053;-81
2023/06/25 03:45:38;;;;;;;11.98;8.57;;;20.50;87.30;;;;;;5008272;28;20042;-80
2023/06/25 03:48:04;;;;;;;9.63;7.80;;;20.40;87.30;;;;;;4995813;28;20034;-81
2023/06/25 03:50:29;;;;;;;11.95;8.27;;;20.40;87.10;;;;;;4994991;28;20046;-82
2023/06/25 03:52:55;;;;;;;10.05;8.05;;;20.40;87.40;;;;;;5009282;28;20538;-82
2023/06/25 03:55:21;;;;;;;10.50;8.30;;;20.40;87.50;;;;;;4995507;28;20070;-82
2023/06/25 03:57:47;;;;;;;11.48;8.38;;;20.30;87.60;;;;;;5005298;28;20129;-82
2023/06/25 04:00:13;;;;;;;11.13;8.35;;;20.30;87.80;;;;;;4996516;28;20066;-82
2023/06/25 04:02:38;;;;;;;10.95;8.48;;;20.30;87.70;;;;;;4999943;28;20050;-81
2023/06/25 04:05:04;;;;;;;10.48;8.55;;;20.30;87.60;;;;;;4995763;28;20504;-81
2023/06/25 04:07:30;;;;;;;10.18;8.23;;;20.20;87.40;;;;;;5004378;28;20550;-80
2023/06/25 04:09:55;;;;;;;10.05;8.10;;;20.20;87.50;;;;;;4993841;28;20046;-81
2023/06/25 04:12:21;;;;;;;10.38;8.00;;;20.20;87.60;;;;;;5003617;28;20484;-81
2023/06/25 04:14:47;;;;;;;11.48;8.60;;;20.20;87.70;;;;;;4995462;28;20515;-81
2023/06/25 04:17:12;;;;;;;9.32;8.07;;;20.20;87.50;;;;;;5001927;28;20085;-81
2023/06/25 04:19:38;;;;;;;10.05;8.05;;;20.20;87.60;;;;;;5015111;28;20080;-80
2023/06/25 04:22:04;;;;;;;10.75;7.97;;;20.20;87.00;;;;;;5008344;28;20038;-80
2023/06/25 04:24:30;;;;;;;11.10;8.75;;;20.10;87.10;;;;;;4977870;28;20391;-81
2023/06/25 04:26:56;;;;;;;9.95;8.15;;;20.10;87.30;;;;;;4995044;28;20042;-81
2023/06/25 04:29:21;;;;;;;11.02;8.93;;;20.10;87.50;;;;;;4995158;28;20121;-80
2023/06/25 04:31:47;;;;;;;11.15;8.52;;;20.10;87.40;;;;;;5004712;28;20062;-81
2023/06/25 04:34:13;;;;;;;9.82;8.07;;;20.10;87.20;;;;;;4995064;28;20049;-81
2023/06/25 04:36:38;;;;;;;11.65;8.27;;;20.00;87.40;;;;;;4994936;28;20456;-82
2023/06/25 04:39:05;;;;;;;10.65;8.13;;;20.00;87.30;;;;;;4995141;28;20125;-81
2023/06/25 04:41:31;;;;;;;10.27;8.15;;;20.00;87.50;;;;;;4994629;28;20397;-82
2023/06/25 04:43:57;;;;;;;8.77;7.47;;;20.10;87.70;;;;;;4997146;28;20053;-82
2023/06/25 04:46:22;;;;;;;11.00;8.30;;;20.00;87.30;;;;;;5005427;28;20512;-81
2023/06/25 04:48:48;;;;;;;10.43;8.63;;;20.00;87.10;;;;;;5011069;28;20479;-81
2023/06/25 04:51:14;;;;;;;9.95;8.07;;;20.00;87.30;;;;;;5014388;28;20045;-81
2023/06/25 04:53:39;;;;;;;10.88;8.30;;;20.00;87.30;;;;;;4996384;28;20053;-81
2023/06/25 04:56:05;;;;;;;10.25;8.23;;;19.90;87.60;;;;;;4994835;28;20104;-81
2023/06/25 04:58:31;;;;;;;9.35;7.63;;;19.90;87.50;;;;;;4995925;28;20473;-81
2023/06/25 05:00:56;;;;;;;10.20;7.68;;;19.90;86.90;;;;;;5001237;28;20136;-81
2023/06/25 05:03:22;;;;;;;10.82;8.30;;;19.90;86.70;;;;;;5001910;28;20571;-81
2023/06/25 05:05:48;;;;;;;10.45;8.63;;;19.90;87.00;;;;;;4994567;28;20504;-81
2023/06/25 05:08:13;;;;;;;9.82;8.20;;;19.90;87.20;;;;;;4997660;28;20396;-81
2023/06/25 05:10:42;;;;;;;10.63;7.95;;;19.80;86.40;;;;;;4993510;28;20034;-81
2023/06/25 05:13:07;;;;;;;10.23;7.60;;;19.90;86.80;;;;;;5001939;28;20120;-81
2023/06/25 05:15:33;;;;;;;10.07;7.95;;;19.80;86.30;;;;;;5010000;28;20081;-80
2023/06/25 05:17:59;;;;;;;10.98;8.18;;;19.80;86.80;;;;;;4998471;28;20042;-81
2023/06/25 05:20:24;;;;;;;10.63;8.25;;;19.80;86.50;;;;;;5013284;28;20076;-81
2023/06/25 05:22:50;;;;;;;11.32;7.82;;;19.80;87.10;;;;;;5000176;28;20412;-81
2023/06/25 05:25:15;;;;;;;10.90;7.57;;;19.80;87.30;;;;;;5013900;28;20058;-81
2023/06/25 05:27:41;;;;;;;9.55;7.75;;;19.80;87.00;;;;;;5015188;28;20054;-81
2023/06/25 05:30:07;;;;;;;11.95;8.82;;;19.90;87.60;;;;;;4993825;28;20038;-81
2023/06/25 05:32:33;;;;;;;10.43;7.88;;;19.90;87.70;;;;;;5009258;28;20082;-80
2023/06/25 05:34:59;;;;;;;10.27;7.90;;;19.90;88.00;;;;;;4994658;28;20128;-81
2023/06/25 05:37:24;;;;;;;10.57;7.50;;;19.90;87.50;;;;;;4994192;28;20129;-81
2023/06/25 05:39:51;;;;;;;9.18;7.38;;;19.90;87.90;;;;;;5001797;28;20050;-81
2023/06/25 05:42:17;;;;;;;10.13;8.45;;;19.90;88.00;;;;;;4994454;28;20096;-81
2023/06/25 05:44:42;;;;;;;8.73;7.13;;;20.00;88.10;;;;;;5007599;28;20042;-81
2023/06/25 05:47:08;;;;;;;8.75;7.07;;;20.00;88.10;;;;;;4999131;28;20100;-80
2023/06/25 05:49:33;;;;;;;8.70;6.82;;;20.00;88.20;;;;;;5004482;28;20054;-81
2023/06/25 05:51:59;;;;;;;10.63;7.75;;;20.10;87.80;;;;;;5002448;28;20046;-81
2023/06/25 05:54:25;;;;;;;10.43;7.40;;;20.10;88.00;;;;;;4997406;28;20047;-81
2023/06/25 05:56:50;;;;;;;13.85;8.45;;;20.10;88.00;;;;;;5004653;28;20046;-81
2023/06/25 05:59:16;;;;;;;10.88;8.00;;;20.10;89.10;;;;;;5000276;28;20069;-81
2023/06/25 06:01:41;;;;;;;12.50;7.75;;;20.20;88.50;;;;;;4993646;28;20054;-81
2023/06/25 06:04:07;;;;;;;9.13;7.50;;;20.20;88.20;;;;;;4993882;28;20391;-82
2023/06/25 06:06:39;;;;;;;10.00;7.50;;;20.20;88.10;;;;;;4993133;28;20496;-83
2023/06/25 06:09:07;;;;;;;10.00;7.28;;;20.30;87.60;;;;;;4995692;28;20096;-82
2023/06/25 06:11:33;;;;;;;10.50;7.95;;;20.30;87.80;;;;;;4993556;28;20061;-82
2023/06/25 06:13:59;;;;;;;9.57;7.45;;;20.30;88.60;;;;;;4993712;28;20407;-81
2023/06/25 06:16:24;;;;;;;10.57;8.23;;;20.30;87.50;;;;;;4993288;28;20476;-83
2023/06/25 06:18:50;;;;;;;17.00;9.40;;;20.40;88.30;;;;;;4980284;28;20557;-83
2023/06/25 06:21:16;;;;;;;9.25;7.35;;;20.40;89.20;;;;;;4973948;28;20576;-83
2023/06/25 06:23:41;;;;;;;13.63;8.07;;;20.50;88.50;;;;;;4975075;28;20051;-83
2023/06/25 06:26:09;;;;;;;9.32;7.32;;;20.50;88.60;;;;;;4975094;28;20046;-83
2023/06/25 06:28:39;;;;;;;17.65;9.70;;;20.60;88.50;;;;;;4973842;28;20405;-82
2023/06/25 06:31:05;;;;;;;19.50;10.35;;;20.60;90.00;;;;;;4989855;28;20046;-83
2023/06/25 06:33:31;;;;;;;15.10;10.40;;;20.70;90.40;;;;;;4997880;28;20488;-82
2023/06/25 06:35:57;;;;;;;11.70;8.27;;;20.70;90.50;;;;;;4998451;28;20058;-79
2023/06/25 06:38:22;;;;;;;11.60;8.02;;;20.80;90.30;;;;;;5000050;28;20046;-78
2023/06/25 06:40:48;;;;;;;15.18;10.30;;;20.90;89.90;;;;;;5003757;28;20618;-79
2023/06/25 06:43:14;;;;;;;14.93;11.57;;;20.90;90.40;;;;;;5000170;28;20172;-79
2023/06/25 06:45:39;;;;;;;12.10;8.70;;;21.00;91.10;;;;;;4995898;28;20050;-79
2023/06/25 06:48:05;;;;;;;17.38;11.07;;;21.20;90.50;;;;;;4996560;28;20054;-79
2023/06/25 06:50:31;;;;;;;10.98;7.90;;;21.20;90.80;;;;;;4977169;28;20053;-79
2023/06/25 06:52:56;;;;;;;12.15;8.63;;;21.30;90.10;;;;;;4994889;28;20050;-78
2023/06/25 06:55:22;;;;;;;13.10;9.60;;;21.30;89.90;;;;;;4998389;28;20125;-79
2023/06/25 06:57:47;;;;;;;15.20;10.45;;;21.40;90.30;;;;;;4997979;28;20035;-79
2023/06/25 07:00:15;;;;;;;12.48;8.57;;;21.50;90.90;;;;;;4997997;28;20050;-78
2023/06/25 07:02:41;;;;;;;15.43;10.68;;;21.60;90.40;;;;;;5004993;28;20056;-78
2023/06/25 07:05:07;;;;;;;12.50;8.35;;;21.70;91.20;;;;;;4996513;28;20042;-78
2023/06/25 07:07:32;;;;;;;13.35;9.10;;;21.80;90.90;;;;;;4996097;28;20046;-78
2023/06/25 07:09:58;;;;;;;14.35;10.13;;;21.90;90.40;;;;;;4997221;28;20046;-77
2023/06/25 07:12:24;;;;;;;12.52;9.00;;;22.00;91.00;;;;;;4998354;28;20508;-77
2023/06/25 07:14:50;;;;;;;10.30;7.22;;;22.10;90.90;;;;;;4997898;28;20077;-79
2023/06/25 07:17:16;;;;;;;13.90;8.60;;;22.20;90.10;;;;;;5002485;28;20081;-78
2023/06/25 07:19:41;;;;;;;19.05;10.68;;;22.30;90.40;;;;;;5004082;28;20041;-78
2023/06/25 07:22:07;;;;;;;19.15;9.90;;;22.40;90.90;;;;;;4997395;28;20470;-78
2023/06/25 07:24:32;;;;;;;12.73;9.18;;;22.50;91.50;;;;;;4978579;28;20062;-78
2023/06/25 07:26:58;;;;;;;14.07;8.73;;;22.60;91.50;;;;;;4990767;28;20042;-77
2023/06/25 07:29:24;;;;;;;14.88;10.30;;;22.80;90.60;;;;;;4997221;28;20054;-78
2023/06/25 07:31:50;;;;;;;9.85;7.25;;;22.90;90.60;;;;;;4995809;28;20046;-78
2023/06/25 07:34:15;;;;;;;12.40;10.20;;;23.00;89.20;;;;;;4997163;28;20050;-78
2023/06/25 07:36:41;;;;;;;11.45;9.18;;;23.10;89.80;;;;;;4995885;28;20053;-78
2023/06/25 07:39:07;;;;;;;10.98;8.85;;;23.20;89.50;;;;;;4994153;28;20050;-77
2023/06/25 07:41:32;;;;;;;9.57;8.38;;;23.30;88.30;;;;;;4996725;28;20147;-77
2023/06/25 07:43:58;;;;;;;14.65;9.23;;;23.50;87.30;;;;;;4995967;28;20060;-78
2023/06/25 07:46:24;;;;;;;14.27;10.60;;;23.60;88.80;;;;;;4995932;28;20077;-78
2023/06/25 07:48:50;;;;;;;14.52;10.90;;;23.70;87.90;;;;;;4999221;28;20042;-78
2023/06/25 07:51:15;;;;;;;13.32;10.05;;;23.80;87.00;;;;;;4999260;28;20103;-78
2023/06/25 07:53:41;;;;;;;13.10;10.27;;;23.90;86.70;;;;;;5002242;28;20038;-78
2023/06/25 07:56:12;;;;;;;12.60;9.40;;;24.00;86.70;;;;;;5000348;28;20054;-77
2023/06/25 07:58:38;;;;;;;11.90;8.85;;;24.20;86.20;;;;;;4993617;28;20064;-79
2023/06/25 08:01:03;;;;;;;11.73;9.68;;;24.30;85.80;;;;;;4995025;28;20047;-78
2023/06/25 08:03:29;;;;;;;11.13;8.90;;;24.40;85.40;;;;;;4990744;28;20054;-78
2023/06/25 08:05:55;;;;;;;14.68;9.27;;;24.50;85.40;;;;;;5000416;28;20042;-79
2023/06/25 08:08:20;;;;;;;11.82;8.90;;;24.60;85.00;;;;;;4995685;28;20069;-79
2023/06/25 08:10:51;;;;;;;12.65;9.63;;;24.70;85.00;;;;;;4995843;28;20050;-80
2023/06/25 08:13:16;;;;;;;8.63;7.38;;;24.80;83.50;;;;;;5007808;28;20081;-79
2023/06/25 08:15:42;;;;;;;11.02;8.10;;;24.90;83.00;;;;;;4992434;28;20034;-80
2023/06/25 08:18:07;;;;;;;11.48;8.20;;;25.00;82.90;;;;;;4997932;28;20487;-78
2023/06/25 08:20:33;;;;;;;12.32;8.32;;;25.10;83.30;;;;;;4996516;28;20054;-79
2023/06/25 08:22:59;;;;;;;8.40;6.40;;;25.10;82.90;;;;;;5000421;28;20595;-79
2023/06/25 08:25:26;;;;;;;14.50;7.40;;;25.30;82.30;;;;;;4996158;28;20042;-78
2023/06/25 08:27:52;;;;;;;11.25;7.35;;;25.40;82.10;;;;;;4981076;28;20046;-79
2023/06/25 08:30:18;;;;;;;13.77;7.20;;;25.50;81.90;;;;;;4999156;28;20458;-79
2023/06/25 08:32:44;;;;;;;14.38;7.68;;;25.60;81.80;;;;;;4999094;28;20130;-86
2023/06/25 08:35:09;;;;;;;11.73;6.97;;;25.70;81.80;;;;;;5011088;28;20045;-79
2023/06/25 08:37:35;;;;;;;11.80;7.55;;;25.80;81.30;;;;;;4998101;28;20046;-79
2023/06/25 08:40:01;;;;;;;12.30;7.18;;;25.80;80.10;;;;;;4995913;28;20046;-79
2023/06/25 08:42:28;;;;;;;13.35;6.95;;;26.00;78.80;;;;;;4994103;28;20054;-79
2023/06/25 08:44:54;;;;;;;9.25;7.18;;;26.10;77.00;;;;;;4994168;28;20030;-79
2023/06/25 08:47:20;;;;;;;8.25;6.15;;;26.20;77.30;;;;;;4994073;28;20057;-79
2023/06/25 08:49:49;;;;;;;8.43;6.00;;;26.30;74.80;;;;;;4996070;28;20416;-79
2023/06/25 08:52:18;;;;;;;8.68;5.25;;;26.40;75.00;;;;;;4998093;28;20579;-79
2023/06/25 08:54:47;;;;;;;9.65;5.47;;;26.40;73.40;;;;;;4995388;28;20134;-78
2023/06/25 08:57:13;;;;;;;9.90;5.93;;;26.50;72.70;;;;;;4994481;28;20053;-78
2023/06/25 08:59:39;;;;;;;7.88;5.90;;;26.60;70.20;;;;;;4997781;28;20046;-78
2023/06/25 09:02:04;;;;;;;10.90;5.80;;;26.70;69.00;;;;;;4994954;28;20129;-78
2023/06/25 09:04:30;;;;;;;9.20;5.85;;;26.80;68.20;;;;;;4995371;28;20085;-78
2023/06/25 09:07:05;;;;;;;8.48;5.75;;;26.90;70.20;;;;;;5000592;28;20042;-78
2023/06/25 09:09:30;;;;;;;9.93;5.40;;;27.00;69.70;;;;;;4987958;28;20046;-78
2023/06/25 09:11:56;;;;;;;7.68;4.55;;;27.10;66.90;;;;;;4995416;28;20443;-78
2023/06/25 09:14:22;;;;;;;6.45;4.32;;;27.10;66.00;;;;;;4999083;28;20136;-79
2023/06/25 09:16:49;;;;;;;7.78;5.22;;;27.20;62.80;;;;;;5000160;28;20045;-79
2023/06/25 09:19:18;;;;;;;8.07;5.22;;;27.30;65.00;;;;;;5008135;28;20049;-79
2023/06/25 09:21:45;;;;;;;7.53;4.38;;;27.40;64.90;;;;;;5007001;28;20157;-78
2023/06/25 09:24:21;;;;;;;6.90;4.70;;;27.50;66.10;;;;;;4991553;28;20120;-79
2023/06/25 09:26:51;;;;;;;7.25;4.45;;;27.50;66.00;;;;;;5009986;28;20054;-79
2023/06/25 09:29:19;;;;;;;7.18;5.07;;;27.60;60.00;;;;;;5001797;28;20511;-79
2023/06/25 09:31:46;;;;;;;6.57;4.90;;;27.70;61.90;;;;;;4993701;28;20556;-79
2023/06/25 09:34:14;;;;;;;6.85;4.50;;;27.80;60.40;;;;;;4998442;28;20046;-79
2023/06/25 09:36:40;;;;;;;9.57;4.82;;;27.80;58.30;;;;;;5008697;28;20365;-78
2023/06/25 09:39:08;;;;;;;6.38;4.05;;;27.90;58.00;;;;;;4998049;28;20508;-78
2023/06/25 09:41:36;;;;;;;8.25;4.35;;;28.00;57.10;;;;;;4993350;28;20043;-80
2023/06/25 09:44:06;;;;;;;5.97;4.15;;;28.10;57.00;;;;;;4995617;28;20125;-80
2023/06/25 09:46:34;;;;;;;6.40;4.32;;;28.10;56.20;;;;;;4994821;28;20134;-80
2023/06/25 09:49:01;;;;;;;6.95;4.43;;;28.20;57.40;;;;;;4982540;28;20054;-80
2023/06/25 09:51:48;;;;;;;7.47;4.10;;;28.20;57.40;;;;;;4996828;28;20054;-80
2023/06/25 09:54:17;;;;;;;6.53;4.43;;;28.30;57.00;;;;;;5000016;28;20046;-80
2023/06/25 09:56:45;;;;;;;6.28;3.83;;;28.30;56.50;;;;;;5003323;28;20543;-81
2023/06/25 09:59:12;;;;;;;7.47;4.63;;;28.30;57.40;;;;;;4993348;28;20050;-81
2023/06/25 10:01:38;;;;;;;6.05;4.38;;;28.40;58.50;;;;;;5000669;28;20050;-78
2023/06/25 10:04:04;;;;;;;7.20;4.38;;;28.50;57.90;;;;;;4992665;28;20074;-82
2023/06/25 10:06:31;;;;;;;6.68;4.18;;;28.60;58.10;;;;;;4998776;28;20050;-79
2023/06/25 10:08:57;;;;;;;9.30;4.70;;;28.60;57.90;;;;;;4997767;28;20500;-79
2023/06/25 10:11:23;;;;;;;7.30;4.65;;;28.70;58.60;;;;;;5001888;28;20050;-79
2023/06/25 10:13:51;;;;;;;7.18;4.80;;;28.80;56.40;;;;;;4997822;28;20093;-78
2023/06/25 10:16:21;;;;;;;6.18;4.40;;;28.90;56.40;;;;;;4997433;28;20058;-79
2023/06/25 10:18:47;;;;;;;6.75;4.50;;;28.90;58.00;;;;;;5001560;28;20050;-79
2023/06/25 10:21:21;;;;;;;8.15;4.80;;;29.00;56.60;;;;;;4997583;28;20046;-80
2023/06/25 10:24:00;;;;;;;7.47;4.90;;;29.10;56.10;;;;;;4997460;28;20055;-79
2023/06/25 10:26:27;;;;;;;6.80;4.80;;;29.20;55.00;;;;;;4997773;28;20117;-79
2023/06/25 10:28:53;;;;;;;7.85;4.70;;;29.20;55.20;;;;;;4997232;28;20043;-78
2023/06/25 10:31:19;;;;;;;7.40;4.80;;;29.30;57.10;;;;;;4997561;28;20044;-78
2023/06/25 10:33:45;;;;;;;5.90;4.72;;;29.30;56.60;;;;;;4996626;28;20042;-78
2023/06/25 10:36:11;;;;;;;7.05;4.47;;;29.40;57.10;;;;;;4981653;28;20495;-77
2023/06/25 10:38:38;;;;;;;7.97;4.65;;;29.50;56.70;;;;;;4978232;28;20043;-78
2023/06/25 10:41:04;;;;;;;7.60;4.55;;;29.60;55.20;;;;;;5009804;28;20046;-79
2023/06/25 10:43:29;;;;;;;7.80;5.50;;;29.60;56.60;;;;;;5017382;28;20407;-77
2023/06/25 10:45:57;;;;;;;6.95;4.63;;;29.70;56.60;;;;;;5007277;28;20463;-77
2023/06/25 10:48:24;;;;;;;11.45;4.40;;;29.70;55.30;;;;;;4996502;28;20439;-79
2023/06/25 10:50:54;;;;;;;8.40;4.78;;;29.70;53.00;;;;;;5011208;28;20038;-77
2023/06/25 10:53:22;;;;;;;8.27;4.80;;;29.80;51.90;;;;;;4997461;28;20129;-77
2023/06/25 10:55:50;;;;;;;6.90;4.15;;;29.80;53.60;;;;;;5005171;28;20510;-77
2023/06/25 10:58:21;;;;;;;6.93;4.72;;;29.90;52.10;;;;;;4997226;28;20062;-77
2023/06/25 11:00:55;;;;;;;6.95;4.60;;;30.00;52.80;;;;;;5001350;28;20140;-76
2023/06/25 11:03:22;;;;;;;6.80;4.28;;;29.90;51.00;;;;;;4997549;28;20054;-76
2023/06/25 11:05:47;;;;;;;12.05;4.38;;;29.90;49.30;;;;;;5001468;28;20034;-75
2023/06/25 11:08:14;;;;;;;6.72;4.03;;;30.00;48.20;;;;;;4999565;28;20067;-77
2023/06/25 11:10:41;;;;;;;8.50;4.32;;;30.00;47.20;;;;;;4999254;28;20745;-76
2023/06/25 11:13:13;;;;;;;8.30;4.40;;;30.00;49.10;;;;;;4991963;28;20039;-76
2023/06/25 11:15:42;;;;;;;6.78;4.70;;;30.00;49.30;;;;;;4990171;28;20042;-76
2023/06/25 11:18:09;;;;;;;9.75;4.65;;;30.10;51.70;;;;;;4981204;28;20066;-76
2023/06/25 11:20:35;;;;;;;6.63;4.50;;;30.10;48.80;;;;;;4985748;28;20042;-77
2023/06/25 11:23:03;;;;;;;8.07;4.47;;;30.20;47.60;;;;;;4993077;28;20050;-77
2023/06/25 11:25:30;;;;;;;6.13;3.85;;;30.20;49.30;;;;;;4997625;28;20057;-79
2023/06/25 11:28:11;;;;;;;9.88;4.57;;;30.30;48.90;;;;;;5000404;28;20042;-84
2023/06/25 11:30:37;;;;;;;7.97;4.53;;;30.30;48.70;;;;;;4989053;28;20053;-81
2023/06/25 11:33:29;;;;;;;7.88;4.60;;;30.40;48.50;;;;;;4988076;28;20046;-81
2023/06/25 11:36:09;;;;;;;6.93;4.53;;;30.40;49.90;;;;;;4994011;28;20057;-85
2023/06/25 11:38:35;;;;;;;8.57;4.68;;;30.40;48.90;;;;;;4988566;28;20046;-87
2023/06/25 11:41:00;;;;;;;6.10;4.28;;;30.50;50.50;;;;;;5002071;28;20046;-82
2023/06/25 11:43:27;;;;;;;6.78;4.20;;;30.60;47.90;;;;;;5006706;28;20602;-81
2023/06/25 11:45:58;;;;;;;8.90;4.43;;;30.70;47.30;;;;;;5000420;28;20129;-81
2023/06/25 11:48:24;;;;;;;6.75;4.53;;;30.70;47.30;;;;;;4989017;28;20514;-84
2023/06/25 11:50:51;;;;;;;6.15;4.28;;;30.80;48.30;;;;;;5005498;28;20077;-80
2023/06/25 11:53:17;;;;;;;8.27;4.50;;;30.80;47.20;;;;;;5012437;28;20045;-81
2023/06/25 11:55:43;;;;;;;5.78;4.00;;;30.90;49.00;;;;;;5014007;28;20052;-80
2023/06/25 11:58:10;;;;;;;7.57;5.00;;;30.90;48.60;;;;;;4977933;28;20057;-83
2023/06/25 12:00:35;;;;;;;6.80;4.07;;;31.00;46.10;;;;;;4987032;28;20129;-81
2023/06/25 12:03:01;;;;;;;7.00;4.50;;;31.00;45.60;;;;;;5018624;28;20100;-81
2023/06/25 12:05:27;;;;;;;8.52;4.35;;;31.00;46.60;;;;;;4992713;28;20054;-81
2023/06/25 12:07:52;;;;;;;5.63;3.85;;;31.00;46.30;;;;;;5013336;28;20081;-80
2023/06/25 12:10:18;;;;;;;6.32;4.20;;;31.10;46.10;;;;;;5015698;28;20085;-80
2023/06/25 12:12:45;;;;;;;6.53;4.38;;;31.10;48.80;;;;;;5002915;28;20121;-80
2023/06/25 12:15:10;;;;;;;6.63;3.97;;;31.10;48.50;;;;;;4996381;28;20042;-82
2023/06/25 12:17:36;;;;;;;5.82;4.10;;;31.20;49.00;;;;;;4999987;28;20045;-82
2023/06/25 12:20:04;;;;;;;6.78;3.88;;;31.30;46.70;;;;;;5015036;28;20091;-83
2023/06/25 12:22:30;;;;;;;8.05;4.20;;;31.30;48.10;;;;;;5006939;28;20084;-82
2023/06/25 12:24:55;;;;;;;6.82;4.40;;;31.40;47.90;;;;;;5003379;28;20038;-83
2023/06/25 12:27:21;;;;;;;7.72;4.28;;;31.40;49.30;;;;;;5007020;28;20098;-80
2023/06/25 12:29:47;;;;;;;5.57;4.03;;;31.50;47.80;;;;;;4995119;28;20050;-80
2023/06/25 12:32:12;;;;;;;5.45;3.40;;;31.50;47.30;;;;;;4998201;28;20042;-82
2023/06/25 12:34:38;;;;;;;5.78;3.53;;;31.50;46.40;;;;;;4978402;28;20061;-80
2023/06/25 12:37:04;;;;;;;5.90;4.03;;;31.50;49.00;;;;;;5009706;28;20056;-80